createdAt,value
2022-08-22T00:00:06.368Z,90.84
2022-08-22T00:01:06.507Z,90.64
2022-08-22T00:02:06.660Z,90.64
2022-08-22T00:02:45.362Z,66.12
2022-08-22T00:02:47.663Z,63.02
2022-08-22T00:02:58.484Z,82.28
2022-08-22T00:03:03.074Z,80.88
2022-08-22T00:03:09.767Z,64.36
2022-08-22T00:03:16.022Z,88.58
2022-08-22T00:03:16.332Z,81.68
2022-08-22T00:03:22.309Z,90.84
2022-08-22T00:04:07.947Z,90.64
2022-08-22T00:05:07.068Z,90.94
2022-08-22T00:06:07.209Z,90.94
2022-08-22T00:07:07.368Z,91.18
2022-08-22T00:08:07.516Z,91.38
2022-08-22T00:09:07.652Z,91.49
2022-08-22T00:10:07.797Z,91.58
2022-08-22T00:11:07.967Z,91.69
2022-08-22T00:12:08.096Z,91.69
2022-08-22T00:13:08.232Z,91.78
2022-08-22T00:14:08.377Z,91.58
2022-08-22T00:15:08.462Z,91.78
2022-08-22T00:16:09.652Z,91.78
2022-08-22T00:17:08.777Z,91.89
2022-08-22T00:18:08.905Z,91.89
2022-08-22T00:19:09.044Z,91.69
2022-08-22T00:20:09.204Z,91.49
2022-08-22T00:21:09.358Z,91.54
2022-08-22T00:22:09.498Z,91.54
2022-08-22T00:23:09.597Z,91.78
2022-08-22T00:24:09.738Z,91.78
2022-08-22T00:25:15.025Z,91.78
2022-08-22T00:26:11.087Z,91.69
2022-08-22T00:27:10.145Z,91.74
2022-08-22T00:28:10.285Z,91.54
2022-08-22T00:29:10.439Z,91.74
2022-08-22T00:30:10.567Z,91.64
2022-08-22T00:31:10.703Z,91.85
2022-08-22T00:32:10.838Z,91.74
2022-08-22T00:33:11.018Z,91.74
2022-08-22T00:34:11.149Z,91.64
2022-08-22T00:35:11.213Z,91.54
2022-08-22T00:36:11.348Z,91.54
2022-08-22T00:37:11.488Z,91.64
2022-08-22T00:38:11.630Z,91.69
2022-08-22T00:39:11.730Z,91.58
2022-08-22T00:40:11.908Z,91.54
2022-08-22T00:41:11.968Z,91.54
2022-08-22T00:42:12.132Z,91.44
2022-08-22T00:43:12.279Z,91.44
2022-08-22T00:44:12.414Z,91.58
2022-08-22T00:45:12.588Z,91.49
2022-08-22T00:46:13.496Z,91.58
2022-08-22T00:47:12.866Z,91.44
2022-08-22T00:48:14.549Z,91.38
2022-08-22T00:49:13.136Z,91.44
2022-08-22T00:50:13.276Z,91.34
2022-08-22T00:51:13.387Z,91.24
2022-08-22T00:52:13.488Z,91.24
2022-08-22T00:53:13.662Z,91.24
2022-08-22T00:54:18.341Z,91.34
2022-08-22T00:55:13.988Z,91.44
2022-08-22T00:56:14.116Z,91.24
2022-08-22T00:57:14.251Z,91.34
2022-08-22T00:58:14.377Z,91.08
2022-08-22T00:59:22.924Z,91.18
2022-08-22T01:00:15.648Z,91.18
2022-08-22T01:01:14.803Z,91.28
2022-08-22T01:02:14.957Z,91.08
2022-08-22T01:03:15.107Z,90.98
2022-08-22T01:04:15.213Z,91.18
2022-08-22T01:05:15.407Z,91.08
2022-08-22T01:06:15.502Z,91.08
2022-08-22T01:07:15.598Z,90.84
2022-08-22T01:08:15.738Z,90.94
2022-08-22T01:09:15.904Z,90.84
2022-08-22T01:10:16.046Z,90.73
2022-08-22T01:11:16.151Z,90.73
2022-08-22T01:12:16.298Z,90.98
2022-08-22T01:13:16.445Z,90.98
2022-08-22T01:14:16.608Z,91.08
2022-08-22T01:15:16.896Z,91.18
2022-08-22T01:16:16.875Z,91.08
2022-08-22T01:17:17.026Z,91.08
2022-08-22T01:18:17.154Z,91.18
2022-08-22T01:19:17.288Z,91.08
2022-08-22T01:20:17.441Z,91.18
2022-08-22T01:21:17.527Z,91.18
2022-08-22T01:22:17.658Z,91.28
2022-08-22T01:23:17.836Z,91.28
2022-08-22T01:24:17.947Z,91.38
2022-08-22T01:25:18.026Z,91.38
2022-08-22T01:26:19.372Z,91.69
2022-08-22T01:27:18.299Z,91.58
2022-08-22T01:28:18.436Z,91.69
2022-08-22T01:29:18.563Z,91.63
2022-08-22T01:30:19.735Z,91.83
2022-08-22T01:31:18.942Z,91.73
2022-08-22T01:32:19.017Z,91.73
2022-08-22T01:33:19.148Z,91.73
2022-08-22T01:34:19.299Z,91.73
2022-08-22T01:35:19.457Z,91.83
2022-08-22T01:36:19.618Z,91.73
2022-08-22T01:37:19.683Z,91.73
2022-08-22T01:38:19.816Z,91.73
2022-08-22T01:39:19.935Z,92.03
2022-08-22T01:40:20.150Z,92.03
2022-08-22T01:41:20.197Z,91.93
2022-08-22T01:42:20.357Z,92.23
2022-08-22T01:43:20.484Z,92.13
2022-08-22T01:44:20.637Z,91.93
2022-08-22T01:45:20.786Z,91.93
2022-08-22T01:46:21.526Z,92.13
2022-08-22T01:47:21.085Z,92.13
2022-08-22T01:48:21.257Z,92.13
2022-08-22T01:49:21.406Z,92.23
2022-08-22T01:50:21.546Z,92.33
2022-08-22T01:51:21.677Z,92.68
2022-08-22T01:52:21.819Z,92.54
2022-08-22T01:53:21.967Z,92.63
2022-08-22T01:54:22.116Z,92.33
2022-08-22T01:55:22.259Z,92.33
2022-08-22T01:56:22.422Z,92.23
2022-08-22T01:57:22.498Z,92.03
2022-08-22T01:58:22.651Z,92.13
2022-08-22T01:59:22.795Z,92.23
2022-08-22T02:00:35.528Z,92.18
2022-08-22T02:01:24.130Z,92.38
2022-08-22T02:02:23.217Z,92.13
2022-08-22T02:03:23.343Z,92.18
2022-08-22T02:04:23.476Z,92.18
2022-08-22T02:05:23.606Z,92.18
2022-08-22T02:06:23.781Z,92.27
2022-08-22T02:07:31.548Z,92.27
2022-08-22T02:08:24.984Z,92.18
2022-08-22T02:09:24.685Z,91.97
2022-08-22T02:10:24.198Z,92.07
2022-08-22T02:11:24.366Z,91.83
2022-08-22T02:12:24.497Z,91.87
2022-08-22T02:13:24.645Z,91.97
2022-08-22T02:14:24.748Z,92.07
2022-08-22T02:15:24.866Z,92.18
2022-08-22T02:16:25.026Z,92.07
2022-08-22T02:17:25.209Z,91.87
2022-08-22T02:18:25.335Z,91.67
2022-08-22T02:19:25.474Z,91.77
2022-08-22T02:20:25.626Z,91.67
2022-08-22T02:21:25.725Z,91.63
2022-08-22T02:22:25.853Z,92.07
2022-08-22T02:23:25.986Z,91.97
2022-08-22T02:24:26.115Z,91.77
2022-08-22T02:25:26.266Z,91.87
2022-08-22T02:26:26.433Z,91.77
2022-08-22T02:27:27.157Z,91.87
2022-08-22T02:28:27.715Z,91.67
2022-08-22T02:29:26.847Z,91.77
2022-08-22T02:30:26.966Z,91.57
2022-08-22T02:31:27.107Z,91.57
2022-08-22T02:32:27.288Z,91.57
2022-08-22T02:33:27.415Z,91.87
2022-08-22T02:34:27.555Z,91.97
2022-08-22T02:35:27.677Z,92.07
2022-08-22T02:36:27.836Z,92.18
2022-08-22T02:37:27.939Z,92.47
2022-08-22T02:38:28.047Z,92.62
2022-08-22T02:39:28.176Z,92.62
2022-08-22T02:40:28.336Z,92.72
2022-08-22T02:41:28.422Z,92.72
2022-08-22T02:42:28.593Z,92.82
2022-08-22T02:43:28.667Z,92.82
2022-08-22T02:44:28.803Z,92.82
2022-08-22T02:45:28.936Z,92.82
2022-08-22T02:46:29.076Z,93.02
2022-08-22T02:47:29.238Z,93.02
2022-08-22T02:48:29.376Z,93.13
2022-08-22T02:49:29.525Z,93.13
2022-08-22T02:50:29.709Z,93.43
2022-08-22T02:51:29.792Z,93.43
2022-08-22T02:52:29.924Z,93.33
2022-08-22T02:53:30.078Z,93.53
2022-08-22T02:54:30.227Z,93.57
2022-08-22T02:55:30.365Z,93.68
2022-08-22T02:56:30.513Z,93.77
2022-08-22T02:57:30.666Z,93.77
2022-08-22T02:58:31.778Z,93.48
2022-08-22T02:59:30.932Z,93.68
2022-08-22T03:00:33.196Z,93.68
2022-08-22T03:01:31.134Z,93.88
2022-08-22T03:02:31.320Z,93.88
2022-08-22T03:03:31.413Z,94.08
2022-08-22T03:04:31.548Z,94.18
2022-08-22T03:05:31.686Z,94.48
2022-08-22T03:06:31.846Z,94.32
2022-08-22T03:07:31.985Z,94.63
2022-08-22T03:08:32.139Z,94.63
2022-08-22T03:09:32.275Z,94.63
2022-08-22T03:10:32.443Z,94.73
2022-08-22T03:11:32.585Z,94.73
2022-08-22T03:12:32.742Z,94.73
2022-08-22T03:13:32.895Z,94.73
2022-08-22T03:14:32.995Z,94.63
2022-08-22T03:15:33.170Z,94.63
2022-08-22T03:16:33.324Z,94.73
2022-08-22T03:17:33.462Z,94.73
2022-08-22T03:18:33.592Z,94.73
2022-08-22T03:19:34.476Z,94.63
2022-08-22T03:20:33.864Z,94.73
2022-08-22T03:21:33.975Z,94.73
2022-08-22T03:22:34.105Z,94.73
2022-08-22T03:23:34.184Z,94.63
2022-08-22T03:24:34.316Z,94.63
2022-08-22T03:25:34.451Z,94.63
2022-08-22T03:26:34.575Z,94.53
2022-08-22T03:27:34.738Z,94.73
2022-08-22T03:28:34.869Z,94.93
2022-08-22T03:29:35.003Z,95.23
2022-08-22T03:30:35.175Z,95.48
2022-08-22T03:31:35.348Z,95.48
2022-08-22T03:32:35.449Z,95.58
2022-08-22T03:33:35.596Z,95.89
2022-08-22T03:34:35.684Z,95.89
2022-08-22T03:35:35.844Z,95.98
2022-08-22T03:36:35.989Z,96.19
2022-08-22T03:37:36.123Z,96.19
2022-08-22T03:38:36.291Z,96.34
2022-08-22T03:39:36.393Z,96.44
2022-08-22T03:40:36.525Z,96.74
2022-08-22T03:41:36.663Z,96.84
2022-08-22T03:42:36.784Z,96.94
2022-08-22T03:43:36.965Z,96.74
2022-08-22T03:44:37.025Z,96.80
2022-08-22T03:45:37.172Z,96.59
2022-08-22T03:46:37.253Z,96.49
2022-08-22T03:47:37.404Z,96.29
2022-08-22T03:48:37.492Z,96.29
2022-08-22T03:49:37.666Z,96.29
2022-08-22T03:50:37.826Z,96.29
2022-08-22T03:51:38.004Z,96.19
2022-08-22T03:52:38.072Z,96.29
2022-08-22T03:53:38.226Z,96.29
2022-08-22T03:54:38.376Z,96.29
2022-08-22T03:55:38.543Z,96.54
2022-08-22T03:56:38.607Z,96.44
2022-08-22T03:57:38.755Z,96.74
2022-08-22T03:58:38.855Z,96.94
2022-08-22T03:59:42.460Z,97.29
2022-08-22T04:00:39.267Z,97.69
2022-08-22T04:01:39.294Z,97.80
2022-08-22T04:02:42.835Z,97.80
2022-08-22T04:03:39.595Z,97.69
2022-08-22T04:04:39.682Z,97.69
2022-08-22T04:05:39.803Z,97.90
2022-08-22T04:06:39.903Z,98.20
2022-08-22T04:07:40.055Z,98.61
2022-08-22T04:08:43.778Z,98.40
2022-08-22T04:09:40.345Z,98.20
2022-08-22T04:10:40.523Z,98.50
2022-08-22T04:11:40.682Z,98.61
2022-08-22T04:12:40.954Z,98.50
2022-08-22T04:13:40.855Z,98.40
2022-08-22T04:14:41.004Z,98.61
2022-08-22T04:15:41.163Z,98.61
2022-08-22T04:16:41.242Z,98.40
2022-08-22T04:17:41.384Z,98.30
2022-08-22T04:18:41.484Z,98.30
2022-08-22T04:19:41.656Z,98.40
2022-08-22T04:20:41.725Z,98.50
2022-08-22T04:21:41.855Z,98.40
2022-08-22T04:22:42.004Z,98.40
2022-08-22T04:23:42.105Z,98.30
2022-08-22T04:24:42.265Z,97.96
2022-08-22T04:25:42.371Z,97.75
2022-08-22T04:26:42.532Z,97.75
2022-08-22T04:27:42.673Z,97.65
2022-08-22T04:28:42.818Z,97.75
2022-08-22T04:29:42.984Z,97.80
2022-08-22T04:30:43.104Z,98.10
2022-08-22T04:31:43.214Z,98.10
2022-08-22T04:32:43.314Z,98.10
2022-08-22T04:33:43.452Z,98.10
2022-08-22T04:34:43.597Z,98.10
2022-08-22T04:35:43.714Z,98.00
2022-08-22T04:36:43.826Z,98.10
2022-08-22T04:37:43.933Z,98.40
2022-08-22T04:38:44.117Z,98.40
2022-08-22T04:39:44.255Z,98.50
2022-08-22T04:40:44.302Z,98.61
2022-08-22T04:41:44.461Z,98.71
2022-08-22T04:42:44.593Z,98.91
2022-08-22T04:43:44.735Z,98.81
2022-08-22T04:44:44.882Z,98.81
2022-08-22T04:45:44.990Z,98.91
2022-08-22T04:46:45.145Z,99.01
2022-08-22T04:47:46.044Z,99.05
2022-08-22T04:48:46.345Z,99.11
2022-08-22T04:49:45.481Z,99.11
2022-08-22T04:50:45.590Z,99.11
2022-08-22T04:51:45.735Z,99.11
2022-08-22T04:52:45.856Z,99.11
2022-08-22T04:53:45.954Z,99.01
2022-08-22T04:54:46.104Z,98.91
2022-08-22T04:55:46.274Z,98.81
2022-08-22T04:56:46.351Z,98.76
2022-08-22T04:57:46.532Z,98.46
2022-08-22T04:58:46.606Z,98.36
2022-08-22T04:59:46.756Z,98.05
2022-08-22T05:00:47.033Z,97.75
2022-08-22T05:01:47.200Z,97.50
2022-08-22T05:02:49.150Z,97.40
2022-08-22T05:03:47.292Z,97.30
2022-08-22T05:04:47.425Z,97.30
2022-08-22T05:05:47.571Z,97.20
2022-08-22T05:06:47.674Z,97.10
2022-08-22T05:07:47.821Z,96.95
2022-08-22T05:08:48.412Z,96.75
2022-08-22T05:09:49.039Z,96.45
2022-08-22T05:10:48.191Z,96.65
2022-08-22T05:11:48.312Z,96.55
2022-08-22T05:12:48.421Z,96.25
2022-08-22T05:13:48.565Z,95.94
2022-08-22T05:14:48.693Z,95.74
2022-08-22T05:15:48.833Z,95.70
2022-08-22T05:16:49.022Z,95.49
2022-08-22T05:17:49.101Z,95.39
2022-08-22T05:18:49.253Z,95.29
2022-08-22T05:19:49.395Z,95.19
2022-08-22T05:20:49.483Z,95.19
2022-08-22T05:21:49.620Z,94.99
2022-08-22T05:22:49.720Z,94.99
2022-08-22T05:23:49.864Z,94.84
2022-08-22T05:24:49.992Z,94.74
2022-08-22T05:25:50.142Z,94.54
2022-08-22T05:26:50.275Z,94.44
2022-08-22T05:27:53.259Z,94.34
2022-08-22T05:28:53.434Z,94.13
2022-08-22T05:29:50.615Z,94.04
2022-08-22T05:30:50.714Z,93.93
2022-08-22T05:31:50.852Z,93.84
2022-08-22T05:32:51.013Z,93.59
2022-08-22T05:33:51.123Z,93.59
2022-08-22T05:34:51.358Z,93.49
2022-08-22T05:35:55.829Z,93.29
2022-08-22T05:36:52.454Z,93.08
2022-08-22T05:37:51.603Z,92.88
2022-08-22T05:38:51.711Z,92.83
2022-08-22T05:39:51.875Z,92.74
2022-08-22T05:40:51.950Z,92.43
2022-08-22T05:41:52.092Z,92.43
2022-08-22T05:42:52.232Z,92.43
2022-08-22T05:43:52.335Z,92.13
2022-08-22T05:44:52.435Z,91.93
2022-08-22T05:45:53.292Z,91.78
2022-08-22T05:46:53.424Z,91.78
2022-08-22T05:47:53.077Z,91.58
2022-08-22T05:48:53.163Z,91.38
2022-08-22T05:49:53.240Z,90.98
2022-08-22T05:50:53.233Z,91.04
2022-08-22T05:51:53.479Z,90.64
2022-08-22T05:52:53.483Z,90.44
2022-08-22T05:53:53.600Z,90.44
2022-08-22T05:54:54.413Z,90.33
2022-08-22T05:55:54.541Z,90.23
2022-08-22T05:56:53.934Z,89.89
2022-08-22T05:57:54.092Z,89.59
2022-08-22T05:58:54.882Z,89.39
2022-08-22T05:59:54.946Z,89.14
2022-08-22T06:00:54.446Z,88.74
2022-08-22T06:01:54.616Z,88.84
2022-08-22T06:02:54.732Z,88.13
2022-08-22T06:03:54.823Z,87.83
2022-08-22T06:04:55.048Z,87.89
2022-08-22T06:05:55.049Z,87.79
2022-08-22T06:06:55.181Z,87.69
2022-08-22T06:07:55.331Z,87.08
2022-08-22T06:08:56.126Z,87.24
2022-08-22T06:09:55.601Z,86.85
2022-08-22T06:10:55.638Z,86.54
2022-08-22T06:11:55.826Z,86.74
2022-08-22T06:12:55.954Z,86.00
2022-08-22T06:13:56.101Z,85.70
2022-08-22T06:14:56.214Z,85.39
2022-08-22T06:15:56.311Z,85.30
2022-08-22T06:16:56.407Z,85.39
2022-08-22T06:17:56.544Z,84.99
2022-08-22T06:18:56.662Z,84.45
2022-08-22T06:19:56.755Z,84.45
2022-08-22T06:20:56.867Z,84.35
2022-08-22T06:21:57.002Z,84.35
2022-08-22T06:22:57.103Z,83.95
2022-08-22T06:23:57.252Z,83.85
2022-08-22T06:24:57.344Z,83.35
2022-08-22T06:25:57.474Z,83.15
2022-08-22T06:26:57.584Z,82.95
2022-08-22T06:27:57.911Z,83.45
2022-08-22T06:28:57.844Z,83.25
2022-08-22T06:29:57.960Z,82.70
2022-08-22T06:30:58.083Z,82.81
2022-08-22T06:31:58.192Z,82.84
2022-08-22T06:33:01.003Z,82.84
2022-08-22T06:33:58.457Z,82.60
2022-08-22T06:34:58.593Z,82.40
2022-08-22T06:35:58.708Z,82.40
2022-08-22T06:36:58.812Z,82.40
2022-08-22T06:37:59.252Z,82.31
2022-08-22T06:38:59.067Z,82.20
2022-08-22T06:39:59.240Z,82.31
2022-08-22T06:40:59.321Z,82.00
2022-08-22T06:41:59.467Z,81.70
2022-08-22T06:42:59.583Z,81.46
2022-08-22T06:43:59.705Z,81.26
2022-08-22T06:44:59.838Z,81.56
2022-08-22T06:45:59.942Z,81.06
2022-08-22T06:47:00.063Z,80.86
2022-08-22T06:48:00.976Z,80.96
2022-08-22T06:49:00.379Z,81.16
2022-08-22T06:50:00.494Z,81.26
2022-08-22T06:51:00.575Z,81.36
2022-08-22T06:52:00.649Z,81.26
2022-08-22T06:53:00.816Z,81.56
2022-08-22T06:54:00.928Z,81.26
2022-08-22T06:55:01.051Z,81.76
2022-08-22T06:56:01.913Z,80.92
2022-08-22T06:57:01.274Z,80.42
2022-08-22T06:58:01.376Z,80.82
2022-08-22T06:59:01.464Z,80.92
2022-08-22T07:00:01.625Z,80.38
2022-08-22T07:01:11.896Z,80.08
2022-08-22T07:02:02.910Z,79.78
2022-08-22T07:03:01.974Z,79.54
2022-08-22T07:04:02.104Z,79.14
2022-08-22T07:05:02.224Z,79.14
2022-08-22T07:06:02.343Z,78.74
2022-08-22T07:07:02.423Z,78.64
2022-08-22T07:08:02.577Z,78.41
2022-08-22T07:09:06.741Z,78.41
2022-08-22T07:10:02.812Z,78.30
2022-08-22T07:11:02.939Z,77.86
2022-08-22T07:12:03.042Z,77.86
2022-08-22T07:13:03.154Z,77.36
2022-08-22T07:14:03.253Z,77.36
2022-08-22T07:15:03.443Z,77.56
2022-08-22T07:16:03.554Z,77.56
2022-08-22T07:17:04.349Z,77.56
2022-08-22T07:18:03.772Z,77.47
2022-08-22T07:19:03.892Z,77.26
2022-08-22T07:20:03.998Z,77.13
2022-08-22T07:21:04.139Z,76.93
2022-08-22T07:22:04.236Z,76.99
2022-08-22T07:23:04.376Z,76.09
2022-08-22T07:24:04.506Z,75.39
2022-08-22T07:25:04.617Z,75.89
2022-08-22T07:26:04.726Z,75.89
2022-08-22T07:27:04.872Z,75.05
2022-08-22T07:28:05.520Z,74.96
2022-08-22T07:29:07.853Z,74.55
2022-08-22T07:30:06.205Z,74.62
2022-08-22T07:31:05.317Z,74.82
2022-08-22T07:32:05.413Z,74.22
2022-08-22T07:33:26.253Z,73.92
2022-08-22T07:34:06.687Z,73.02
2022-08-22T07:35:05.846Z,73.12
2022-08-22T07:36:05.965Z,74.02
2022-08-22T07:37:06.074Z,73.62
2022-08-22T07:38:08.173Z,73.66
2022-08-22T07:39:06.295Z,74.09
2022-08-22T07:40:06.466Z,74.59
2022-08-22T07:41:06.546Z,74.99
2022-08-22T07:42:06.696Z,74.79
2022-08-22T07:43:06.819Z,74.89
2022-08-22T07:44:06.914Z,75.59
2022-08-22T07:45:07.037Z,75.19
2022-08-22T07:46:07.125Z,75.29
2022-08-22T07:47:07.252Z,75.79
2022-08-22T07:48:07.363Z,76.19
2022-08-22T07:49:09.515Z,75.59
2022-08-22T07:50:07.628Z,75.85
2022-08-22T07:51:07.716Z,75.65
2022-08-22T07:52:07.863Z,75.76
2022-08-22T07:53:08.034Z,74.96
2022-08-22T07:54:08.127Z,74.85
2022-08-22T07:55:08.233Z,74.55
2022-08-22T07:56:08.326Z,74.55
2022-08-22T07:57:08.476Z,75.05
2022-08-22T07:58:08.625Z,75.32
2022-08-22T07:59:12.848Z,74.62
2022-08-22T08:00:08.852Z,74.49
2022-08-22T08:01:09.036Z,73.49
2022-08-22T08:02:09.146Z,73.19
2022-08-22T08:03:09.257Z,72.78
2022-08-22T08:04:09.370Z,73.32
2022-08-22T08:05:09.488Z,73.42
2022-08-22T08:06:09.578Z,73.39
2022-08-22T08:07:09.717Z,73.69
2022-08-22T08:08:09.879Z,74.05
2022-08-22T08:09:11.018Z,73.85
2022-08-22T08:10:13.078Z,72.65
2022-08-22T08:11:10.225Z,72.75
2022-08-22T08:12:10.398Z,72.65
2022-08-22T08:13:10.487Z,72.22
2022-08-22T08:14:13.762Z,71.78
2022-08-22T08:15:10.725Z,70.89
2022-08-22T08:16:10.829Z,71.69
2022-08-22T08:17:10.986Z,70.39
2022-08-22T08:18:11.098Z,69.99
2022-08-22T08:19:11.245Z,70.29
2022-08-22T08:20:11.379Z,69.99
2022-08-22T08:21:11.471Z,69.89
2022-08-22T08:22:11.618Z,70.39
2022-08-22T08:23:11.718Z,70.59
2022-08-22T08:24:11.868Z,69.79
2022-08-22T08:25:12.016Z,70.49
2022-08-22T08:26:12.107Z,70.69
2022-08-22T08:27:12.266Z,70.16
2022-08-22T08:28:12.320Z,68.73
2022-08-22T08:29:12.432Z,68.73
2022-08-22T08:30:15.375Z,68.60
2022-08-22T08:31:12.667Z,68.30
2022-08-22T08:32:12.789Z,68.40
2022-08-22T08:33:25.315Z,67.97
2022-08-22T08:34:13.999Z,67.86
2022-08-22T08:35:13.147Z,67.04
2022-08-22T08:36:13.288Z,66.44
2022-08-22T08:37:13.399Z,66.74
2022-08-22T08:38:13.558Z,66.61
2022-08-22T08:39:13.689Z,66.21
2022-08-22T08:40:13.862Z,65.68
2022-08-22T08:41:13.928Z,65.19
2022-08-22T08:42:14.040Z,65.45
2022-08-22T08:43:14.149Z,64.16
2022-08-22T08:44:14.260Z,64.16
2022-08-22T08:45:14.436Z,64.69
2022-08-22T08:46:14.523Z,64.69
2022-08-22T08:47:14.659Z,64.06
2022-08-22T08:48:14.751Z,63.34
2022-08-22T08:49:14.889Z,62.74
2022-08-22T08:50:15.052Z,62.91
2022-08-22T08:51:15.158Z,62.02
2022-08-22T08:52:15.277Z,61.19
2022-08-22T08:53:15.389Z,60.24
2022-08-22T08:54:15.564Z,59.65
2022-08-22T08:55:22.453Z,60.14
2022-08-22T08:56:19.730Z,60.64
2022-08-22T08:57:15.941Z,60.14
2022-08-22T08:58:17.796Z,60.74
2022-08-22T08:59:16.159Z,60.05
2022-08-22T09:00:17.010Z,59.97
2022-08-22T09:01:16.411Z,60.47
2022-08-22T09:02:20.700Z,59.97
2022-08-22T09:03:25.050Z,59.65
2022-08-22T09:04:17.718Z,59.52
2022-08-22T09:05:16.865Z,58.60
2022-08-22T09:06:16.984Z,58.77
2022-08-22T09:07:17.131Z,58.15
2022-08-22T09:08:17.242Z,56.84
2022-08-22T09:09:17.358Z,56.91
2022-08-22T09:10:18.878Z,56.81
2022-08-22T09:11:17.584Z,57.77
2022-08-22T09:12:19.442Z,55.89
2022-08-22T09:13:17.859Z,55.66
2022-08-22T09:14:17.952Z,56.36
2022-08-22T09:15:18.079Z,55.57
2022-08-22T09:16:18.723Z,55.87
2022-08-22T09:17:18.346Z,55.43
2022-08-22T09:18:18.523Z,55.89
2022-08-22T09:19:18.560Z,55.72
2022-08-22T09:20:19.625Z,55.72
2022-08-22T09:21:30.785Z,55.62
2022-08-22T09:22:19.953Z,55.82
2022-08-22T09:23:19.104Z,54.63
2022-08-22T09:24:19.199Z,55.49
2022-08-22T09:25:19.351Z,54.34
2022-08-22T09:26:19.477Z,54.83
2022-08-22T09:27:19.625Z,55.15
2022-08-22T09:28:19.751Z,55.58
2022-08-22T09:29:19.880Z,55.70
2022-08-22T09:30:27.748Z,55.90
2022-08-22T09:31:32.770Z,55.30
2022-08-22T09:32:21.254Z,55.90
2022-08-22T09:33:20.412Z,55.51
2022-08-22T09:34:24.034Z,55.11
2022-08-22T09:35:22.375Z,55.18
2022-08-22T09:36:20.795Z,54.93
2022-08-22T09:37:20.841Z,55.43
2022-08-22T09:38:21.013Z,54.02
2022-08-22T09:39:21.134Z,54.19
2022-08-22T09:40:25.184Z,54.26
2022-08-22T09:41:21.361Z,53.39
2022-08-22T09:42:21.441Z,53.79
2022-08-22T09:43:22.862Z,53.86
2022-08-22T09:44:22.412Z,52.23
2022-08-22T09:45:21.794Z,50.12
2022-08-22T09:46:21.902Z,49.28
2022-08-22T09:47:24.706Z,48.20
2022-08-22T09:48:22.154Z,48.30
2022-08-22T09:49:22.315Z,48.74
2022-08-22T09:50:22.446Z,49.62
2022-08-22T09:51:31.935Z,49.21
2022-08-22T09:52:33.810Z,48.30
2022-08-22T09:53:23.803Z,49.21
2022-08-22T09:54:22.918Z,48.18
2022-08-22T09:55:35.405Z,47.32
2022-08-22T09:56:26.131Z,46.20
2022-08-22T09:57:23.327Z,45.39
2022-08-22T09:58:23.426Z,45.66
2022-08-22T09:59:23.587Z,45.73
2022-08-22T10:00:23.708Z,44.19
2022-08-22T10:01:23.882Z,45.27
2022-08-22T10:02:23.907Z,45.03
2022-08-22T10:03:24.067Z,43.52
2022-08-22T10:04:24.188Z,43.42
2022-08-22T10:05:35.214Z,42.46
2022-08-22T10:06:25.387Z,42.78
2022-08-22T10:07:24.527Z,44.37
2022-08-22T10:08:26.199Z,43.44
2022-08-22T10:09:32.013Z,42.81
2022-08-22T10:10:26.110Z,41.62
2022-08-22T10:11:24.996Z,41.82
2022-08-22T10:12:25.094Z,41.52
2022-08-22T10:13:25.255Z,42.03
2022-08-22T10:14:25.376Z,41.21
2022-08-22T10:15:25.509Z,40.41
2022-08-22T10:16:25.595Z,39.84
2022-08-22T10:17:27.728Z,40.04
2022-08-22T10:18:26.123Z,39.65
2022-08-22T10:19:26.194Z,39.36
2022-08-22T10:20:27.709Z,39.04
2022-08-22T10:21:26.289Z,38.53
2022-08-22T10:22:29.977Z,37.87
2022-08-22T10:23:26.510Z,37.65
2022-08-22T10:24:26.608Z,37.67
2022-08-22T10:25:28.546Z,37.25
2022-08-22T10:26:26.871Z,37.25
2022-08-22T10:27:27.018Z,37.81
2022-08-22T10:28:28.582Z,38.73
2022-08-22T10:29:27.256Z,38.90
2022-08-22T10:30:27.641Z,38.89
2022-08-22T10:31:27.526Z,37.52
2022-08-22T10:32:27.617Z,36.66
2022-08-22T10:33:29.161Z,37.63
2022-08-22T10:34:27.912Z,37.54
2022-08-22T10:35:28.042Z,36.63
2022-08-22T10:36:29.157Z,36.33
2022-08-22T10:37:28.297Z,37.25
2022-08-22T10:38:28.419Z,37.23
2022-08-22T10:39:28.543Z,36.43
2022-08-22T10:40:28.707Z,36.79
2022-08-22T10:41:28.823Z,36.96
2022-08-22T10:42:28.911Z,35.88
2022-08-22T10:43:30.039Z,34.80
2022-08-22T10:44:29.172Z,34.72
2022-08-22T10:45:36.814Z,35.94
2022-08-22T10:46:30.462Z,37.46
2022-08-22T10:47:29.559Z,37.99
2022-08-22T10:48:29.640Z,38.32
2022-08-22T10:49:29.792Z,39.43
2022-08-22T10:50:31.198Z,40.11
2022-08-22T10:51:30.098Z,40.25
2022-08-22T10:52:30.200Z,40.90
2022-08-22T10:53:30.316Z,39.57
2022-08-22T10:54:30.411Z,37.38
2022-08-22T10:55:30.579Z,36.76
2022-08-22T10:56:30.706Z,36.04
2022-08-22T10:57:30.801Z,34.56
2022-08-22T10:58:30.909Z,35.13
2022-08-22T10:59:31.051Z,34.92
2022-08-22T11:00:31.191Z,34.80
2022-08-22T11:01:38.136Z,33.41
2022-08-22T11:02:32.482Z,33.28
2022-08-22T11:03:31.540Z,33.11
2022-08-22T11:04:31.653Z,33.81
2022-08-22T11:05:31.864Z,34.55
2022-08-22T11:06:31.924Z,34.17
2022-08-22T11:07:32.044Z,34.88
2022-08-22T11:08:33.099Z,34.99
2022-08-22T11:09:37.015Z,34.68
2022-08-22T11:10:32.413Z,35.23
2022-08-22T11:11:33.045Z,33.64
2022-08-22T11:12:34.977Z,34.14
2022-08-22T11:13:32.783Z,33.85
2022-08-22T11:14:32.905Z,33.75
2022-08-22T11:15:35.131Z,34.27
2022-08-22T11:16:36.740Z,35.55
2022-08-22T11:17:38.129Z,34.69
2022-08-22T11:18:34.383Z,36.18
2022-08-22T11:19:33.483Z,35.96
2022-08-22T11:20:33.608Z,35.05
2022-08-22T11:21:33.726Z,34.70
2022-08-22T11:22:33.915Z,33.04
2022-08-22T11:23:34.030Z,33.12
2022-08-22T11:24:36.785Z,33.61
2022-08-22T11:25:38.606Z,33.29
2022-08-22T11:26:41.377Z,32.05
2022-08-22T11:27:39.926Z,32.54
2022-08-22T11:28:35.614Z,32.21
2022-08-22T11:29:34.735Z,31.02
2022-08-22T11:30:36.401Z,30.52
2022-08-22T11:31:36.548Z,30.63
2022-08-22T11:32:35.204Z,30.60
2022-08-22T11:33:46.788Z,30.47
2022-08-22T11:34:36.423Z,30.28
2022-08-22T11:35:36.289Z,29.86
2022-08-22T11:36:35.656Z,29.86
2022-08-22T11:37:43.533Z,29.66
2022-08-22T11:38:36.900Z,30.14
2022-08-22T11:39:36.033Z,30.28
2022-08-22T11:40:36.148Z,31.32
2022-08-22T11:41:36.279Z,32.70
2022-08-22T11:42:36.434Z,34.83
2022-08-22T11:43:37.546Z,35.64
2022-08-22T11:44:37.590Z,36.46
2022-08-22T11:45:37.832Z,37.27
2022-08-22T11:46:36.946Z,37.92
2022-08-22T11:47:37.106Z,38.64
2022-08-22T11:48:37.220Z,38.96
2022-08-22T11:49:37.338Z,39.06
2022-08-22T11:50:37.497Z,39.03
2022-08-22T11:51:37.586Z,39.17
2022-08-22T11:52:37.715Z,38.08
2022-08-22T11:53:37.798Z,36.94
2022-08-22T11:54:37.919Z,35.90
2022-08-22T11:55:38.043Z,36.35
2022-08-22T11:56:40.170Z,34.61
2022-08-22T11:57:38.298Z,35.39
2022-08-22T11:58:38.425Z,35.59
2022-08-22T11:59:40.148Z,34.35
2022-08-22T12:00:38.667Z,33.49
2022-08-22T12:01:39.140Z,31.47
2022-08-22T12:02:38.967Z,30.29
2022-08-22T12:03:39.059Z,30.20
2022-08-22T12:04:39.166Z,30.51
2022-08-22T12:05:39.288Z,31.31
2022-08-22T12:06:39.410Z,31.32
2022-08-22T12:07:39.528Z,31.21
2022-08-22T12:08:39.701Z,30.92
2022-08-22T12:09:39.789Z,31.32
2022-08-22T12:10:39.899Z,31.02
2022-08-22T12:11:40.039Z,31.04
2022-08-22T12:12:40.188Z,31.15
2022-08-22T12:13:40.289Z,31.44
2022-08-22T12:14:40.459Z,31.66
2022-08-22T12:15:40.535Z,31.85
2022-08-22T12:16:40.697Z,32.44
2022-08-22T12:17:55.221Z,32.45
2022-08-22T12:18:41.928Z,33.07
2022-08-22T12:19:58.813Z,33.22
2022-08-22T12:20:45.563Z,34.73
2022-08-22T12:21:41.348Z,35.64
2022-08-22T12:22:41.489Z,36.36
2022-08-22T12:23:48.978Z,36.46
2022-08-22T12:24:42.761Z,36.96
2022-08-22T12:25:44.638Z,37.19
2022-08-22T12:26:42.023Z,37.10
2022-08-22T12:27:48.275Z,37.29
2022-08-22T12:28:43.230Z,37.81
2022-08-22T12:29:45.018Z,38.12
2022-08-22T12:30:42.490Z,38.21
2022-08-22T12:31:42.611Z,37.81
2022-08-22T12:32:44.030Z,37.61
2022-08-22T12:33:42.849Z,37.57
2022-08-22T12:34:43.002Z,37.45
2022-08-22T12:35:43.863Z,36.47
2022-08-22T12:36:43.289Z,36.57
2022-08-22T12:37:52.831Z,36.77
2022-08-22T12:38:44.506Z,36.73
2022-08-22T12:39:43.710Z,35.64
2022-08-22T12:40:43.986Z,36.33
2022-08-22T12:41:46.632Z,35.84
2022-08-22T12:42:43.983Z,36.31
2022-08-22T12:43:44.092Z,36.43
2022-08-22T12:44:44.242Z,36.11
2022-08-22T12:45:44.391Z,36.31
2022-08-22T12:46:46.659Z,36.21